Vancouver International Airport
CYVR : now visible

Airfield :











YOU CAN JOIN US ON...

 
LOGIN :

Register | Disclaimer

   EN    FR    IT 

 









Legend :    VFR   Marginal VFR   IFR   Intensive IFR   Very Intensive IFR
Visi :
Ceiling :
>= 8 km
>= 3000ft
5 to 8 km
1000 to 3000 ft
1500m to 5 km
500 to 1000 ft
800 to 1500m
200 to 500 ft
< 800m
< 200 ft
Symbols :   Thunderstorms  Fog  Heavy snow  Heavy precipitations  Wind > 20 kt







- Airport Elevation : 14 ft
- IATA code : YVR


CYVR - Vancouver International

CURRENT METAR :
  • 172200Z 29010KT 30SM FEW016 FEW040 FEW120 FEW240 06/03 A3022 RMK CF1SC1AC1CI1 CF TR SC TR CI TR SLP235

EXPIRED METARs :
  • 172100Z 29010KT 30SM FEW040 FEW180 FEW240 06/02 A3022 RMK CU1AC1CI1 CU TR CI TR SLP235
  • 172000Z 28013KT 30SM FEW016 FEW240 05/02 A3022 RMK CU2CI1 CI TR SLP234

TAF TAF CYVR
Valid from the 17 at 21:00 until the 19 at 00:00 UTC


172038Z 1721/1824 28012KT P6SM FEW015 FEW240
BECMG 1723/1801 29007KT
FM180600 05005KT P6SM SCT020
FM181000 11010KT P6SM BKN020
FM181700 11010KT P6SM BKN030 RMK NXT FCST BY 180000Z
CZVR FIR / North America



MET'MAP, your aeronautical weather chart ! - Copyright ORBIFLY December 2007 - Disclaimer

ORBIFLY MET'MAP TEAM :

Programming & Development : Alexandra Zaïnal
Concept & Development : Baudouin d'Aumeries
Co-Development & Prog : Marc-Olivier Méhu
Technical & hardware support : Manuel Goepfert

Contact : metmap@orbifly.com




SOURCES & CREDITS :

   NOAA       Earth
Advisory